createdAt,value
2019-05-23T00:00:54.627Z,82.84
2019-05-23T00:03:41.317Z,82.72
2019-05-23T00:06:14.055Z,83.09
2019-05-23T00:08:43.225Z,83.51
2019-05-23T00:11:32.518Z,83.87
2019-05-23T00:14:05.725Z,85.71
2019-05-23T00:16:34.562Z,86.25
2019-05-23T00:19:03.077Z,86.40
2019-05-23T00:21:32.803Z,87.21
2019-05-23T00:24:03.865Z,87.89
2019-05-23T00:26:34.480Z,88.92
2019-05-23T00:29:09.860Z,89.30
2019-05-23T00:31:35.332Z,89.42
2019-05-23T00:34:04.792Z,88.94
2019-05-23T00:36:34.590Z,90.25
2019-05-23T00:39:04.707Z,90.68
2019-05-23T00:41:33.196Z,90.56
2019-05-23T00:44:01.616Z,90.09
2019-05-23T00:46:30.112Z,90.35
2019-05-23T00:48:59.226Z,90.11
2019-05-23T00:51:27.845Z,89.26
2019-05-23T00:53:56.904Z,89.41
2019-05-23T00:56:26.279Z,89.52
2019-05-23T00:58:55.043Z,89.48
2019-05-23T01:01:25.231Z,89.18
2019-05-23T01:03:54.720Z,88.93
2019-05-23T01:06:23.612Z,89.74
2019-05-23T01:08:52.978Z,88.48
2019-05-23T01:11:23.150Z,88.66
2019-05-23T01:13:51.720Z,87.69
2019-05-23T01:16:22.713Z,88.73
2019-05-23T01:18:51.863Z,89.09
2019-05-23T01:21:38.820Z,88.53
2019-05-23T01:24:12.373Z,88.22
2019-05-23T01:26:41.845Z,87.17
2019-05-23T01:29:11.206Z,87.50
2019-05-23T01:31:41.336Z,87.49
2019-05-23T01:34:11.729Z,88.48
2019-05-23T01:36:40.296Z,88.23
2019-05-23T01:39:11.410Z,87.48
2019-05-23T01:41:40.261Z,87.68
2019-05-23T01:44:10.287Z,87.88
2019-05-23T01:46:39.856Z,88.37
2019-05-23T01:49:09.095Z,88.71
2019-05-23T01:51:38.163Z,91.04
2019-05-23T01:54:07.713Z,91.93
2019-05-23T01:56:37.286Z,92.63
2019-05-23T01:59:06.244Z,93.08
2019-05-23T02:01:35.272Z,92.25
2019-05-23T02:04:04.301Z,93.34
2019-05-23T02:06:32.801Z,94.23
2019-05-23T02:09:01.668Z,95.11
2019-05-23T02:11:31.256Z,95.35
2019-05-23T02:14:00.144Z,96.08
2019-05-23T02:16:29.254Z,96.10
2019-05-23T02:18:58.394Z,95.92
2019-05-23T02:21:28.622Z,95.89
2019-05-23T02:23:57.514Z,95.44
2019-05-23T02:26:28.704Z,96.08
2019-05-23T02:31:19.925Z,96.02
2019-05-23T02:33:48.734Z,96.04
2019-05-23T02:36:17.520Z,95.69
2019-05-23T02:38:54.053Z,95.51
2019-05-23T02:41:39.314Z,95.08
2019-05-23T02:44:09.367Z,93.95
2019-05-23T02:46:55.914Z,94.89
2019-05-23T02:49:28.000Z,95.65
2019-05-23T02:51:57.022Z,96.00
2019-05-23T02:54:29.157Z,95.92
2019-05-23T02:57:00.354Z,95.81
2019-05-23T02:59:39.149Z,95.45
2019-05-23T03:02:30.344Z,95.80
2019-05-23T03:04:59.877Z,95.94
2019-05-23T03:07:32.997Z,96.39
2019-05-23T03:10:02.527Z,96.63
2019-05-23T03:12:31.500Z,96.73
2019-05-23T03:15:02.836Z,96.68
2019-05-23T03:17:34.565Z,96.67
2019-05-23T03:20:05.797Z,96.90
2019-05-23T03:22:40.486Z,96.67
2019-05-23T03:25:31.393Z,96.67
2019-05-23T03:28:01.872Z,96.66
2019-05-23T03:30:32.198Z,96.91
2019-05-23T03:33:08.358Z,97.29
2019-05-23T03:35:38.401Z,97.42
2019-05-23T03:38:08.773Z,97.41
2019-05-23T03:40:37.548Z,97.36
2019-05-23T03:43:08.578Z,97.48
2019-05-23T03:45:39.939Z,97.46
2019-05-23T03:48:08.815Z,97.60
2019-05-23T03:50:38.972Z,97.42
2019-05-23T03:53:08.042Z,97.18
2019-05-23T03:55:36.517Z,96.96
2019-05-23T03:58:05.248Z,97.00
2019-05-23T04:00:36.958Z,96.95
2019-05-23T04:03:07.192Z,96.75
2019-05-23T04:05:35.623Z,96.73
2019-05-23T04:08:06.351Z,96.23
2019-05-23T04:10:35.042Z,96.13
2019-05-23T04:13:03.887Z,95.95
2019-05-23T04:15:33.469Z,95.54
2019-05-23T04:18:01.957Z,95.13
2019-05-23T04:20:31.407Z,94.37
2019-05-23T04:23:00.428Z,93.95
2019-05-23T04:25:28.833Z,94.02
2019-05-23T04:27:58.603Z,93.71
2019-05-23T04:30:28.147Z,94.03
2019-05-23T04:32:56.585Z,93.88
2019-05-23T04:35:25.456Z,93.02
2019-05-23T04:37:54.211Z,92.37
2019-05-23T04:40:23.094Z,92.11
2019-05-23T04:42:51.693Z,91.60
2019-05-23T04:45:20.178Z,90.52
2019-05-23T04:47:48.665Z,89.69
2019-05-23T04:50:18.729Z,88.52
2019-05-23T04:52:47.406Z,87.44
2019-05-23T04:55:16.689Z,85.94
2019-05-23T04:57:45.537Z,86.57
2019-05-23T05:00:16.255Z,84.31
2019-05-23T05:02:45.809Z,84.61
2019-05-23T05:05:14.752Z,84.36
2019-05-23T05:07:44.112Z,84.03
2019-05-23T05:10:15.373Z,83.70
2019-05-23T05:12:44.039Z,83.13
2019-05-23T05:15:13.210Z,83.61
2019-05-23T05:17:42.393Z,83.89
2019-05-23T05:20:11.928Z,82.96
2019-05-23T05:22:40.411Z,82.04
2019-05-23T05:25:09.881Z,82.12
2019-05-23T05:27:39.714Z,81.98
2019-05-23T05:30:09.472Z,82.29
2019-05-23T05:32:44.820Z,82.10
2019-05-23T05:35:08.721Z,82.31
2019-05-23T05:37:37.114Z,82.19
2019-05-23T05:40:08.263Z,81.00
2019-05-23T05:42:37.806Z,80.15
2019-05-23T05:45:10.258Z,80.74
2019-05-23T05:47:39.198Z,79.14
2019-05-23T05:50:10.894Z,79.56
2019-05-23T05:52:40.212Z,80.24
2019-05-23T05:55:09.823Z,79.97
2019-05-23T05:57:38.308Z,80.33
2019-05-23T06:00:28.747Z,79.71
2019-05-23T06:03:04.131Z,79.41
2019-05-23T06:05:46.074Z,78.71
2019-05-23T06:08:16.500Z,77.07
2019-05-23T06:10:45.455Z,77.79
2019-05-23T06:13:14.029Z,76.58
2019-05-23T06:15:43.435Z,76.76
2019-05-23T06:18:12.603Z,76.92
2019-05-23T06:20:45.229Z,74.74
2019-05-23T06:23:14.905Z,74.45
2019-05-23T06:25:44.765Z,75.69
2019-05-23T06:28:14.877Z,76.90
2019-05-23T06:30:44.119Z,74.52
2019-05-23T06:33:23.073Z,74.15
2019-05-23T06:35:44.147Z,73.49
2019-05-23T06:38:12.620Z,73.54
2019-05-23T06:40:41.603Z,73.75
2019-05-23T06:43:10.410Z,73.45
2019-05-23T06:45:40.546Z,73.24
2019-05-23T06:48:09.131Z,71.98
2019-05-23T06:50:37.556Z,68.79
2019-05-23T06:53:07.351Z,69.60
2019-05-23T06:55:35.830Z,70.10
2019-05-23T06:58:05.879Z,70.97
2019-05-23T07:00:34.727Z,68.31
2019-05-23T07:03:03.237Z,68.76
2019-05-23T07:05:34.722Z,66.70
2019-05-23T07:08:04.557Z,64.69
2019-05-23T07:10:33.003Z,65.13
2019-05-23T07:13:01.736Z,63.44
2019-05-23T07:15:30.852Z,66.14
2019-05-23T07:18:01.133Z,64.95
2019-05-23T07:20:30.031Z,66.72
2019-05-23T07:22:59.003Z,68.72
2019-05-23T07:25:27.567Z,67.46
2019-05-23T07:27:55.996Z,65.33
2019-05-23T07:30:26.342Z,66.33
2019-05-23T07:32:55.081Z,66.00
2019-05-23T07:35:24.420Z,65.04
2019-05-23T07:37:52.904Z,65.54
2019-05-23T07:40:22.801Z,66.14
2019-05-23T07:42:51.521Z,65.97
2019-05-23T07:45:22.089Z,65.67
2019-05-23T07:47:50.529Z,64.32
2019-05-23T07:50:19.217Z,64.32
2019-05-23T07:52:48.003Z,62.26
2019-05-23T07:55:33.619Z,63.28
2019-05-23T07:58:02.050Z,61.32
2019-05-23T08:00:32.117Z,59.42
2019-05-23T08:03:02.726Z,61.00
2019-05-23T08:05:32.031Z,61.62
2019-05-23T08:08:02.003Z,60.22
2019-05-23T08:10:34.183Z,57.81
2019-05-23T08:13:00.795Z,59.32
2019-05-23T08:15:29.497Z,56.58
2019-05-23T08:17:57.946Z,56.58
2019-05-23T08:20:26.879Z,54.70
2019-05-23T08:22:55.336Z,56.96
2019-05-23T08:25:23.765Z,57.52
2019-05-23T08:27:52.379Z,54.74
2019-05-23T08:30:21.204Z,56.74
2019-05-23T08:32:49.815Z,53.37
2019-05-23T08:35:18.400Z,52.53
2019-05-23T08:37:47.092Z,52.80
2019-05-23T08:40:17.004Z,50.82
2019-05-23T08:42:45.800Z,51.18
2019-05-23T08:45:16.940Z,52.16
2019-05-23T08:47:45.524Z,47.46
2019-05-23T08:50:14.977Z,46.55
2019-05-23T08:52:43.518Z,47.59
2019-05-23T08:55:25.894Z,48.30
2019-05-23T08:57:56.518Z,50.97
2019-05-23T09:00:33.160Z,47.91
2019-05-23T09:03:03.649Z,44.49
2019-05-23T09:05:36.871Z,42.33
2019-05-23T09:08:06.542Z,39.93
2019-05-23T09:10:36.093Z,42.88
2019-05-23T09:13:04.858Z,40.65
2019-05-23T09:15:33.288Z,44.44
2019-05-23T09:18:01.799Z,42.77
2019-05-23T09:20:31.245Z,41.69
2019-05-23T09:22:59.774Z,38.05
2019-05-23T09:25:28.177Z,35.71
2019-05-23T09:27:57.284Z,35.84
2019-05-23T09:30:26.702Z,35.18
2019-05-23T09:32:55.356Z,37.16
2019-05-23T09:35:24.111Z,33.63
2019-05-23T09:37:52.546Z,35.25
2019-05-23T09:40:21.229Z,36.58
2019-05-23T09:42:49.666Z,33.19
2019-05-23T09:45:18.341Z,35.35
2019-05-23T09:47:50.995Z,34.01
2019-05-23T09:50:18.442Z,33.44
2019-05-23T09:52:47.054Z,33.72
2019-05-23T09:55:16.136Z,33.28
2019-05-23T09:57:44.662Z,35.54
2019-05-23T10:00:14.902Z,35.53
2019-05-23T10:02:43.477Z,35.77
2019-05-23T10:05:13.041Z,34.96
2019-05-23T10:07:41.657Z,34.89
2019-05-23T10:10:10.594Z,34.31
2019-05-23T10:12:39.052Z,33.81
2019-05-23T10:15:10.461Z,34.95
2019-05-23T10:17:38.929Z,36.03
2019-05-23T10:20:08.266Z,35.06
2019-05-23T10:22:36.770Z,36.14
2019-05-23T10:25:08.227Z,33.23
2019-05-23T10:27:36.652Z,31.65
2019-05-23T10:30:10.115Z,32.76
2019-05-23T10:32:38.604Z,34.30
2019-05-23T10:35:08.294Z,36.39
2019-05-23T10:37:36.866Z,38.81
2019-05-23T10:40:06.539Z,38.05
2019-05-23T10:42:35.908Z,38.42
2019-05-23T10:45:06.447Z,38.31
2019-05-23T10:47:34.856Z,41.95
2019-05-23T10:50:08.440Z,38.13
2019-05-23T10:52:35.500Z,35.64
2019-05-23T10:55:04.681Z,34.55
2019-05-23T10:57:33.679Z,35.23
2019-05-23T11:00:02.390Z,36.19
2019-05-23T11:02:31.234Z,33.86
2019-05-23T11:05:11.582Z,34.59
2019-05-23T11:07:30.447Z,36.21
2019-05-23T11:09:58.894Z,32.76
2019-05-23T11:12:27.675Z,37.76
2019-05-23T11:14:56.287Z,39.74
2019-05-23T11:17:25.105Z,40.97
2019-05-23T11:19:53.529Z,39.08
2019-05-23T11:22:23.092Z,37.58
2019-05-23T11:24:51.520Z,37.71
2019-05-23T11:27:21.245Z,33.90
2019-05-23T11:29:50.206Z,34.92
2019-05-23T11:32:20.303Z,36.86
2019-05-23T11:34:48.779Z,37.81
2019-05-23T11:37:17.586Z,37.44
2019-05-23T11:39:49.541Z,41.01
2019-05-23T11:42:16.457Z,37.60
2019-05-23T11:44:44.950Z,37.05
2019-05-23T11:47:14.040Z,34.65
2019-05-23T11:49:43.809Z,33.94
2019-05-23T11:52:13.332Z,37.17
2019-05-23T11:54:41.843Z,36.84
2019-05-23T11:57:10.669Z,36.99
2019-05-23T11:59:39.269Z,35.31
2019-05-23T12:02:09.341Z,37.26
2019-05-23T12:04:39.499Z,36.38
2019-05-23T12:07:10.393Z,36.49
2019-05-23T12:09:38.910Z,38.47
2019-05-23T12:12:07.344Z,37.54
2019-05-23T12:14:36.169Z,38.42
2019-05-23T12:17:05.108Z,37.70
2019-05-23T12:19:34.300Z,38.79
2019-05-23T12:22:02.813Z,37.01
2019-05-23T12:24:35.368Z,37.10
2019-05-23T12:27:01.567Z,36.61
2019-05-23T12:29:29.964Z,36.92
2019-05-23T12:31:58.774Z,36.07
2019-05-23T12:34:27.267Z,37.79
2019-05-23T12:37:17.116Z,38.23
2019-05-23T12:39:25.898Z,39.49
2019-05-23T12:41:54.325Z,41.99
2019-05-23T12:44:23.244Z,40.33
2019-05-23T12:46:51.725Z,39.09
2019-05-23T12:49:27.813Z,38.73
2019-05-23T12:51:57.786Z,38.61
2019-05-23T12:54:26.981Z,37.22
2019-05-23T12:56:56.020Z,37.16
2019-05-23T12:59:25.512Z,37.72
2019-05-23T13:01:54.958Z,38.81
2019-05-23T13:04:23.531Z,38.79
2019-05-23T13:06:52.250Z,36.82
2019-05-23T13:09:20.640Z,37.73
2019-05-23T13:11:49.480Z,35.58
2019-05-23T13:14:18.587Z,36.56
2019-05-23T13:16:47.550Z,36.41
2019-05-23T13:19:16.507Z,35.99
2019-05-23T13:21:45.155Z,36.87
2019-05-23T13:24:13.646Z,39.21
2019-05-23T13:26:42.197Z,37.21
2019-05-23T13:29:11.129Z,36.35
2019-05-23T13:31:40.098Z,36.91
2019-05-23T13:34:08.630Z,36.63
2019-05-23T13:36:37.045Z,37.10
2019-05-23T13:39:08.168Z,38.64
2019-05-23T13:41:36.926Z,36.16
2019-05-23T13:44:05.684Z,36.22
2019-05-23T13:46:34.337Z,35.31
2019-05-23T13:49:03.773Z,36.00
2019-05-23T13:51:32.184Z,35.67
2019-05-23T13:54:00.708Z,34.96
2019-05-23T13:56:29.182Z,33.71
2019-05-23T13:58:58.140Z,34.60
2019-05-23T14:01:26.543Z,34.82
2019-05-23T14:03:55.612Z,35.74
2019-05-23T14:06:24.138Z,34.59
2019-05-23T14:08:52.623Z,34.63
2019-05-23T14:11:21.269Z,36.31
2019-05-23T14:13:59.209Z,35.99
2019-05-23T14:16:20.215Z,37.46
2019-05-23T14:18:49.363Z,34.57
2019-05-23T14:21:18.191Z,34.73
2019-05-23T14:23:46.855Z,35.84
2019-05-23T14:26:16.709Z,36.33
2019-05-23T14:28:45.784Z,33.88
2019-05-23T14:31:15.971Z,32.70
2019-05-23T14:33:55.607Z,32.18
2019-05-23T14:36:44.150Z,33.23
2019-05-23T14:39:14.199Z,32.39
2019-05-23T14:41:53.889Z,31.65
2019-05-23T14:44:22.476Z,33.10
2019-05-23T14:47:08.964Z,32.48
2019-05-23T14:49:48.357Z,32.12
2019-05-23T14:52:18.970Z,32.36
2019-05-23T14:54:49.290Z,32.94
2019-05-23T14:57:18.370Z,32.46
2019-05-23T14:59:47.449Z,31.86
2019-05-23T15:02:18.162Z,31.23
2019-05-23T15:04:46.963Z,34.27
2019-05-23T15:07:15.795Z,34.27
2019-05-23T15:09:44.850Z,34.50
2019-05-23T15:12:13.739Z,35.55
2019-05-23T15:14:42.824Z,34.69
2019-05-23T15:17:11.530Z,33.14
2019-05-23T15:19:45.109Z,36.33
2019-05-23T15:22:11.588Z,34.17
2019-05-23T15:24:40.605Z,34.33
2019-05-23T15:27:09.065Z,33.16
2019-05-23T15:29:37.486Z,32.88
2019-05-23T15:32:05.961Z,32.68
2019-05-23T15:34:35.508Z,31.60
2019-05-23T15:37:04.814Z,32.63
2019-05-23T15:39:33.228Z,30.69
2019-05-23T15:42:01.677Z,31.06
2019-05-23T15:44:30.663Z,32.06
2019-05-23T15:46:59.478Z,32.37
2019-05-23T15:49:28.364Z,32.03
2019-05-23T15:51:58.480Z,31.38
2019-05-23T15:54:34.417Z,33.41
2019-05-23T15:57:04.489Z,32.21
2019-05-23T15:59:37.471Z,34.17
2019-05-23T16:02:13.294Z,32.57
2019-05-23T16:04:42.510Z,35.58
2019-05-23T16:07:11.713Z,33.57
2019-05-23T16:09:40.224Z,34.46
2019-05-23T16:12:11.104Z,34.97
2019-05-23T16:14:39.927Z,34.53
2019-05-23T16:17:09.546Z,35.37
2019-05-23T16:19:38.024Z,34.65
2019-05-23T16:22:06.696Z,34.45
2019-05-23T16:24:35.598Z,34.26
2019-05-23T16:27:05.736Z,36.20
2019-05-23T16:29:36.205Z,35.41
2019-05-23T16:32:05.612Z,35.90
2019-05-23T16:34:34.253Z,36.12
2019-05-23T16:37:02.645Z,36.64
2019-05-23T16:39:46.073Z,36.06
2019-05-23T16:42:01.988Z,36.67
2019-05-23T16:44:30.362Z,37.11
2019-05-23T16:46:58.829Z,36.12
2019-05-23T16:49:27.360Z,36.24
2019-05-23T16:51:55.844Z,37.83
2019-05-23T16:54:25.880Z,39.26
2019-05-23T16:57:04.931Z,39.26
2019-05-23T16:59:37.895Z,40.24
2019-05-23T17:02:24.397Z,38.58
2019-05-23T17:05:09.122Z,38.80
2019-05-23T17:07:26.661Z,38.04
2019-05-23T17:10:08.501Z,38.30
2019-05-23T17:12:43.212Z,38.31
2019-05-23T17:15:23.509Z,38.96
2019-05-23T17:18:02.394Z,39.72
2019-05-23T17:20:25.589Z,40.04
2019-05-23T17:23:01.325Z,40.33
2019-05-23T17:25:47.321Z,40.68
2019-05-23T17:28:17.720Z,40.62
2019-05-23T17:30:50.856Z,40.64
2019-05-23T17:33:19.655Z,40.96
2019-05-23T17:35:48.323Z,41.36
2019-05-23T17:38:16.831Z,40.79
2019-05-23T17:40:45.235Z,40.50
2019-05-23T17:43:13.898Z,41.49
2019-05-23T17:45:42.281Z,39.94
2019-05-23T17:48:11.253Z,40.42
2019-05-23T17:50:39.777Z,40.49
2019-05-23T17:53:08.395Z,40.20
2019-05-23T17:55:36.812Z,40.39
2019-05-23T17:58:06.301Z,39.69
2019-05-23T18:00:39.258Z,40.68
2019-05-23T18:03:08.294Z,40.37
2019-05-23T18:05:36.961Z,41.00
2019-05-23T18:08:09.323Z,40.72
2019-05-23T18:10:44.502Z,41.79
2019-05-23T18:13:08.613Z,42.18
2019-05-23T18:15:37.086Z,40.93
2019-05-23T18:18:07.569Z,41.52
2019-05-23T18:20:37.875Z,41.71
2019-05-23T18:23:06.755Z,41.30
2019-05-23T18:25:36.381Z,39.52
2019-05-23T18:28:05.340Z,39.82
2019-05-23T18:30:35.569Z,42.04
2019-05-23T18:33:04.666Z,40.26
2019-05-23T18:35:33.142Z,41.60
2019-05-23T18:38:01.822Z,42.06
2019-05-23T18:40:30.573Z,42.38
2019-05-23T18:42:59.353Z,42.70
2019-05-23T18:45:29.706Z,43.29
2019-05-23T18:47:58.299Z,44.05
2019-05-23T18:50:27.347Z,44.46
2019-05-23T18:52:56.197Z,42.74
2019-05-23T18:55:24.681Z,42.50
2019-05-23T18:57:53.129Z,42.65
2019-05-23T19:00:39.540Z,43.26
2019-05-23T19:03:07.996Z,44.37
2019-05-23T19:05:37.003Z,44.35
2019-05-23T19:08:05.877Z,44.05
2019-05-23T19:10:35.067Z,43.52
2019-05-23T19:13:03.502Z,44.31
2019-05-23T19:15:32.596Z,44.25
2019-05-23T19:18:01.097Z,43.99
2019-05-23T19:20:29.571Z,44.17
2019-05-23T19:22:58.257Z,43.85
2019-05-23T19:25:27.391Z,43.58
2019-05-23T19:27:56.153Z,44.11
2019-05-23T19:30:25.125Z,43.61
2019-05-23T19:32:53.576Z,43.22
2019-05-23T19:35:22.068Z,44.29
2019-05-23T19:37:50.470Z,43.55
2019-05-23T19:40:19.054Z,43.64
2019-05-23T19:42:47.503Z,44.26
2019-05-23T19:45:16.103Z,44.36
2019-05-23T19:47:45.780Z,44.83
2019-05-23T19:50:14.385Z,44.64
2019-05-23T19:52:43.015Z,45.13
2019-05-23T19:55:11.507Z,45.68
2019-05-23T19:57:40.941Z,46.17
2019-05-23T20:00:11.311Z,46.05
2019-05-23T20:02:47.416Z,47.31
2019-05-23T20:05:29.432Z,47.72
2019-05-23T20:07:58.382Z,48.91
2019-05-23T20:10:27.625Z,47.68
2019-05-23T20:12:56.042Z,48.61
2019-05-23T20:15:24.876Z,48.96
2019-05-23T20:17:53.603Z,49.68
2019-05-23T20:20:22.030Z,49.53
2019-05-23T20:22:50.442Z,50.18
2019-05-23T20:25:19.504Z,50.11
2019-05-23T20:27:48.181Z,51.09
2019-05-23T20:30:38.794Z,51.13
2019-05-23T20:33:08.091Z,50.80
2019-05-23T20:35:36.499Z,51.34
2019-05-23T20:38:05.042Z,50.41
2019-05-23T20:40:34.153Z,51.20
2019-05-23T20:43:02.769Z,49.40
2019-05-23T20:45:31.208Z,49.35
2019-05-23T20:47:59.650Z,49.86
2019-05-23T20:50:28.135Z,48.68
2019-05-23T20:52:56.541Z,48.43
2019-05-23T20:55:25.067Z,48.47
2019-05-23T20:57:53.507Z,49.85
2019-05-23T21:00:35.639Z,49.04
2019-05-23T21:03:04.754Z,48.90
2019-05-23T21:05:33.504Z,49.86
2019-05-23T21:08:01.873Z,50.58
2019-05-23T21:10:39.280Z,51.49
2019-05-23T21:13:08.128Z,51.90
2019-05-23T21:15:36.561Z,51.75
2019-05-23T21:18:05.835Z,51.87
2019-05-23T21:20:34.334Z,51.87
2019-05-23T21:23:02.820Z,49.97
2019-05-23T21:25:31.910Z,50.29
2019-05-23T21:28:00.305Z,50.11
2019-05-23T21:30:28.722Z,49.08
2019-05-23T21:32:57.160Z,48.74
2019-05-23T21:35:25.566Z,48.57
2019-05-23T21:37:53.971Z,48.73
2019-05-23T21:40:34.192Z,49.56
2019-05-23T21:43:03.057Z,49.69
2019-05-23T21:45:31.479Z,50.70
2019-05-23T21:47:59.903Z,50.79
2019-05-23T21:50:28.576Z,50.07
2019-05-23T21:52:57.064Z,50.32
2019-05-23T21:55:36.830Z,50.68
2019-05-23T21:58:06.378Z,50.95
2019-05-23T22:01:06.515Z,51.57
2019-05-23T22:03:47.361Z,50.40
2019-05-23T22:06:19.822Z,51.16
2019-05-23T22:08:49.135Z,50.93
2019-05-23T22:11:17.615Z,50.90
2019-05-23T22:13:46.027Z,50.73
2019-05-23T22:16:14.798Z,50.64
2019-05-23T22:18:43.414Z,49.60
2019-05-23T22:21:11.942Z,49.56
2019-05-23T22:23:40.406Z,48.88
2019-05-23T22:26:09.091Z,48.84
2019-05-23T22:28:37.590Z,48.33
2019-05-23T22:31:06.916Z,47.70
2019-05-23T22:33:37.020Z,47.43
2019-05-23T22:36:06.922Z,47.34
2019-05-23T22:38:35.415Z,47.15
2019-05-23T22:41:04.500Z,47.26
2019-05-23T22:43:32.899Z,47.53
2019-05-23T22:46:01.332Z,47.94
2019-05-23T22:48:29.738Z,48.31
2019-05-23T22:50:58.156Z,48.71
2019-05-23T22:53:26.536Z,49.16
2019-05-23T22:55:54.947Z,49.33
2019-05-23T22:58:23.431Z,48.52
2019-05-23T23:00:51.853Z,47.60
2019-05-23T23:03:20.262Z,48.24
2019-05-23T23:05:48.703Z,48.43
2019-05-23T23:08:17.532Z,47.42
2019-05-23T23:10:45.941Z,47.47
2019-05-23T23:13:15.066Z,47.38
2019-05-23T23:15:43.523Z,47.06
2019-05-23T23:18:11.952Z,47.11
2019-05-23T23:20:40.368Z,47.97
2019-05-23T23:23:09.248Z,47.67
2019-05-23T23:25:37.653Z,48.10
2019-05-23T23:28:06.068Z,47.92
2019-05-23T23:30:36.216Z,48.24
2019-05-23T23:33:04.719Z,47.65
2019-05-23T23:35:33.855Z,47.62
2019-05-23T23:38:02.400Z,47.71
2019-05-23T23:40:30.811Z,48.02
2019-05-23T23:42:59.213Z,47.26
2019-05-23T23:45:45.840Z,47.97
2019-05-23T23:48:32.070Z,48.37
2019-05-23T23:51:18.592Z,48.20
2019-05-23T23:54:04.453Z,47.79
2019-05-23T23:56:50.547Z,47.95
2019-05-23T23:59:18.392Z,48.95
